sensor_id;sensor_type;location;lat;lon;timestamp;P1;durP1;ratioP1;P2;durP2;ratioP2
23988;SDS011;12202;52.136;5.592;2023-04-03T00:01:18;11.77;;;2.92;;
23988;SDS011;12202;52.136;5.592;2023-04-03T00:03:44;9.98;;;3.03;;
23988;SDS011;12202;52.136;5.592;2023-04-03T00:06:10;8.65;;;3.08;;
23988;SDS011;12202;52.136;5.592;2023-04-03T00:08:37;10.32;;;2.72;;
23988;SDS011;12202;52.136;5.592;2023-04-03T00:11:03;5.90;;;2.80;;
23988;SDS011;12202;52.136;5.592;2023-04-03T00:13:30;8.23;;;3.00;;
23988;SDS011;12202;52.136;5.592;2023-04-03T00:15:56;8.38;;;2.70;;
23988;SDS011;12202;52.136;5.592;2023-04-03T00:18:22;9.02;;;2.97;;
23988;SDS011;12202;52.136;5.592;2023-04-03T00:20:49;7.95;;;3.15;;
23988;SDS011;12202;52.136;5.592;2023-04-03T00:23:15;5.57;;;2.60;;
23988;SDS011;12202;52.136;5.592;2023-04-03T00:25:41;4.53;;;2.83;;
23988;SDS011;12202;52.136;5.592;2023-04-03T00:28:07;11.55;;;3.65;;
23988;SDS011;12202;52.136;5.592;2023-04-03T00:30:33;10.48;;;3.28;;
23988;SDS011;12202;52.136;5.592;2023-04-03T00:32:59;8.43;;;2.90;;
23988;SDS011;12202;52.136;5.592;2023-04-03T00:35:25;9.82;;;2.67;;
23988;SDS011;12202;52.136;5.592;2023-04-03T00:37:52;7.53;;;2.90;;
23988;SDS011;12202;52.136;5.592;2023-04-03T00:40:18;6.40;;;3.40;;
23988;SDS011;12202;52.136;5.592;2023-04-03T00:42:45;9.02;;;3.30;;
23988;SDS011;12202;52.136;5.592;2023-04-03T00:47:41;12.65;;;3.65;;
23988;SDS011;12202;52.136;5.592;2023-04-03T00:50:07;6.88;;;3.05;;
23988;SDS011;12202;52.136;5.592;2023-04-03T00:52:33;6.82;;;3.45;;
23988;SDS011;12202;52.136;5.592;2023-04-03T00:55:00;6.05;;;2.97;;
23988;SDS011;12202;52.136;5.592;2023-04-03T00:57:28;9.60;;;2.97;;
23988;SDS011;12202;52.136;5.592;2023-04-03T00:59:57;10.95;;;3.78;;
23988;SDS011;12202;52.136;5.592;2023-04-03T01:02:25;8.60;;;3.05;;
23988;SDS011;12202;52.136;5.592;2023-04-03T01:04:51;7.45;;;3.22;;
23988;SDS011;12202;52.136;5.592;2023-04-03T01:09:43;11.18;;;3.38;;
23988;SDS011;12202;52.136;5.592;2023-04-03T01:12:17;8.10;;;3.15;;
23988;SDS011;12202;52.136;5.592;2023-04-03T01:14:44;7.47;;;3.40;;
23988;SDS011;12202;52.136;5.592;2023-04-03T01:18:12;9.65;;;3.10;;
23988;SDS011;12202;52.136;5.592;2023-04-03T01:25:17;8.55;;;3.17;;
23988;SDS011;12202;52.136;5.592;2023-04-03T01:27:43;6.78;;;2.88;;
23988;SDS011;12202;52.136;5.592;2023-04-03T01:30:09;8.52;;;3.45;;
23988;SDS011;12202;52.136;5.592;2023-04-03T01:32:36;6.80;;;3.38;;
23988;SDS011;12202;52.136;5.592;2023-04-03T01:35:02;11.75;;;3.72;;
23988;SDS011;12202;52.136;5.592;2023-04-03T01:37:28;14.15;;;4.18;;
23988;SDS011;12202;52.136;5.592;2023-04-03T01:39:55;12.15;;;3.67;;
23988;SDS011;12202;52.136;5.592;2023-04-03T01:42:21;10.43;;;3.40;;
23988;SDS011;12202;52.136;5.592;2023-04-03T01:44:47;13.82;;;4.05;;
23988;SDS011;12202;52.136;5.592;2023-04-03T01:47:13;8.55;;;3.65;;
23988;SDS011;12202;52.136;5.592;2023-04-03T01:49:39;8.10;;;4.03;;
23988;SDS011;12202;52.136;5.592;2023-04-03T01:52:05;6.00;;;3.60;;
23988;SDS011;12202;52.136;5.592;2023-04-03T01:54:31;12.68;;;3.67;;
23988;SDS011;12202;52.136;5.592;2023-04-03T01:56:57;12.68;;;3.53;;
23988;SDS011;12202;52.136;5.592;2023-04-03T01:59:23;13.70;;;3.85;;
23988;SDS011;12202;52.136;5.592;2023-04-03T02:01:49;21.63;;;5.15;;
23988;SDS011;12202;52.136;5.592;2023-04-03T02:04:15;8.45;;;3.90;;
23988;SDS011;12202;52.136;5.592;2023-04-03T02:06:41;13.00;;;3.90;;
23988;SDS011;12202;52.136;5.592;2023-04-03T02:09:07;12.73;;;3.78;;
23988;SDS011;12202;52.136;5.592;2023-04-03T02:11:33;7.78;;;3.85;;
23988;SDS011;12202;52.136;5.592;2023-04-03T02:13:59;8.88;;;3.65;;
23988;SDS011;12202;52.136;5.592;2023-04-03T02:16:25;11.18;;;4.13;;
23988;SDS011;12202;52.136;5.592;2023-04-03T02:18:51;14.00;;;4.90;;
23988;SDS011;12202;52.136;5.592;2023-04-03T02:21:17;9.65;;;4.05;;
23988;SDS011;12202;52.136;5.592;2023-04-03T02:23:43;11.98;;;4.00;;
23988;SDS011;12202;52.136;5.592;2023-04-03T02:26:10;12.00;;;4.32;;
23988;SDS011;12202;52.136;5.592;2023-04-03T02:28:37;11.20;;;4.30;;
23988;SDS011;12202;52.136;5.592;2023-04-03T02:31:04;8.57;;;4.30;;
23988;SDS011;12202;52.136;5.592;2023-04-03T02:33:31;15.70;;;6.35;;
23988;SDS011;12202;52.136;5.592;2023-04-03T02:35:57;8.98;;;4.57;;
23988;SDS011;12202;52.136;5.592;2023-04-03T02:38:24;7.68;;;4.43;;
23988;SDS011;12202;52.136;5.592;2023-04-03T02:40:50;12.93;;;4.00;;
23988;SDS011;12202;52.136;5.592;2023-04-03T02:43:16;10.13;;;4.43;;
23988;SDS011;12202;52.136;5.592;2023-04-03T02:45:43;10.48;;;5.00;;
23988;SDS011;12202;52.136;5.592;2023-04-03T02:48:09;15.15;;;4.68;;
23988;SDS011;12202;52.136;5.592;2023-04-03T02:50:35;8.63;;;4.20;;
23988;SDS011;12202;52.136;5.592;2023-04-03T02:53:01;11.45;;;4.20;;
23988;SDS011;12202;52.136;5.592;2023-04-03T02:55:27;10.98;;;4.05;;
23988;SDS011;12202;52.136;5.592;2023-04-03T02:57:53;12.55;;;4.07;;
23988;SDS011;12202;52.136;5.592;2023-04-03T03:00:19;10.70;;;4.70;;
23988;SDS011;12202;52.136;5.592;2023-04-03T03:02:45;10.57;;;4.28;;
23988;SDS011;12202;52.136;5.592;2023-04-03T03:05:11;13.25;;;4.70;;
23988;SDS011;12202;52.136;5.592;2023-04-03T03:07:37;15.20;;;5.10;;
23988;SDS011;12202;52.136;5.592;2023-04-03T03:10:03;17.45;;;6.13;;
23988;SDS011;12202;52.136;5.592;2023-04-03T03:12:29;10.75;;;4.25;;
23988;SDS011;12202;52.136;5.592;2023-04-03T03:14:55;14.10;;;5.43;;
23988;SDS011;12202;52.136;5.592;2023-04-03T03:17:21;11.60;;;4.95;;
23988;SDS011;12202;52.136;5.592;2023-04-03T03:19:47;10.43;;;4.50;;
23988;SDS011;12202;52.136;5.592;2023-04-03T03:22:13;11.60;;;4.70;;
23988;SDS011;12202;52.136;5.592;2023-04-03T03:24:39;14.77;;;5.25;;
23988;SDS011;12202;52.136;5.592;2023-04-03T03:27:05;13.50;;;4.97;;
23988;SDS011;12202;52.136;5.592;2023-04-03T03:29:31;16.33;;;4.85;;
23988;SDS011;12202;52.136;5.592;2023-04-03T03:31:57;12.82;;;4.88;;
23988;SDS011;12202;52.136;5.592;2023-04-03T03:34:23;14.05;;;5.00;;
23988;SDS011;12202;52.136;5.592;2023-04-03T03:36:49;10.50;;;4.95;;
23988;SDS011;12202;52.136;5.592;2023-04-03T03:39:15;12.63;;;4.35;;
23988;SDS011;12202;52.136;5.592;2023-04-03T03:41:41;11.93;;;4.70;;
23988;SDS011;12202;52.136;5.592;2023-04-03T03:44:07;8.60;;;4.75;;
23988;SDS011;12202;52.136;5.592;2023-04-03T03:46:33;14.30;;;5.57;;
23988;SDS011;12202;52.136;5.592;2023-04-03T03:48:59;20.85;;;4.80;;
23988;SDS011;12202;52.136;5.592;2023-04-03T03:51:25;14.02;;;5.45;;
23988;SDS011;12202;52.136;5.592;2023-04-03T03:53:51;9.73;;;4.60;;
23988;SDS011;12202;52.136;5.592;2023-04-03T03:56:17;12.52;;;5.00;;
23988;SDS011;12202;52.136;5.592;2023-04-03T03:58:43;18.35;;;5.72;;
23988;SDS011;12202;52.136;5.592;2023-04-03T04:01:09;9.68;;;5.43;;
23988;SDS011;12202;52.136;5.592;2023-04-03T04:03:35;11.30;;;5.30;;
23988;SDS011;12202;52.136;5.592;2023-04-03T04:06:02;19.33;;;4.80;;
23988;SDS011;12202;52.136;5.592;2023-04-03T04:08:28;11.50;;;5.40;;
23988;SDS011;12202;52.136;5.592;2023-04-03T04:10:54;15.25;;;5.13;;
23988;SDS011;12202;52.136;5.592;2023-04-03T04:13:20;12.00;;;4.65;;
23988;SDS011;12202;52.136;5.592;2023-04-03T04:15:46;18.20;;;5.80;;
23988;SDS011;12202;52.136;5.592;2023-04-03T04:18:12;14.57;;;4.82;;
23988;SDS011;12202;52.136;5.592;2023-04-03T04:20:38;9.30;;;5.03;;
23988;SDS011;12202;52.136;5.592;2023-04-03T04:23:04;10.65;;;4.55;;
23988;SDS011;12202;52.136;5.592;2023-04-03T04:25:30;14.23;;;5.15;;
23988;SDS011;12202;52.136;5.592;2023-04-03T04:27:56;10.27;;;4.95;;
23988;SDS011;12202;52.136;5.592;2023-04-03T04:30:22;16.30;;;5.28;;
23988;SDS011;12202;52.136;5.592;2023-04-03T04:32:48;17.98;;;5.57;;
23988;SDS011;12202;52.136;5.592;2023-04-03T04:35:14;14.27;;;6.43;;
23988;SDS011;12202;52.136;5.592;2023-04-03T04:37:40;20.77;;;7.38;;
23988;SDS011;12202;52.136;5.592;2023-04-03T04:40:06;15.18;;;5.85;;
23988;SDS011;12202;52.136;5.592;2023-04-03T04:42:32;16.70;;;6.28;;
23988;SDS011;12202;52.136;5.592;2023-04-03T04:44:58;16.42;;;5.57;;
23988;SDS011;12202;52.136;5.592;2023-04-03T04:47:24;21.98;;;7.53;;
23988;SDS011;12202;52.136;5.592;2023-04-03T04:49:52;17.65;;;5.70;;
23988;SDS011;12202;52.136;5.592;2023-04-03T04:52:18;16.48;;;6.90;;
23988;SDS011;12202;52.136;5.592;2023-04-03T04:54:44;15.93;;;5.53;;
23988;SDS011;12202;52.136;5.592;2023-04-03T04:57:10;14.10;;;5.28;;
23988;SDS011;12202;52.136;5.592;2023-04-03T04:59:36;14.32;;;5.75;;
23988;SDS011;12202;52.136;5.592;2023-04-03T05:02:02;11.65;;;5.10;;
23988;SDS011;12202;52.136;5.592;2023-04-03T05:04:28;16.48;;;5.57;;
23988;SDS011;12202;52.136;5.592;2023-04-03T05:06:54;14.05;;;5.18;;
23988;SDS011;12202;52.136;5.592;2023-04-03T05:09:20;21.38;;;7.75;;
23988;SDS011;12202;52.136;5.592;2023-04-03T05:11:46;18.35;;;5.82;;
23988;SDS011;12202;52.136;5.592;2023-04-03T05:14:12;18.00;;;6.78;;
23988;SDS011;12202;52.136;5.592;2023-04-03T05:16:38;21.25;;;6.05;;
23988;SDS011;12202;52.136;5.592;2023-04-03T05:19:04;12.10;;;5.07;;
23988;SDS011;12202;52.136;5.592;2023-04-03T05:21:30;16.90;;;5.28;;
23988;SDS011;12202;52.136;5.592;2023-04-03T05:23:58;21.77;;;6.65;;
23988;SDS011;12202;52.136;5.592;2023-04-03T05:26:24;15.32;;;5.72;;
23988;SDS011;12202;52.136;5.592;2023-04-03T05:28:50;12.68;;;5.70;;
23988;SDS011;12202;52.136;5.592;2023-04-03T05:31:16;13.52;;;5.07;;
23988;SDS011;12202;52.136;5.592;2023-04-03T05:33:42;22.33;;;6.40;;
23988;SDS011;12202;52.136;5.592;2023-04-03T05:36:08;14.25;;;5.60;;
23988;SDS011;12202;52.136;5.592;2023-04-03T05:38:34;15.40;;;5.70;;
23988;SDS011;12202;52.136;5.592;2023-04-03T05:41:00;16.83;;;6.53;;
23988;SDS011;12202;52.136;5.592;2023-04-03T05:43:26;19.20;;;7.65;;
23988;SDS011;12202;52.136;5.592;2023-04-03T05:45:53;20.10;;;6.03;;
23988;SDS011;12202;52.136;5.592;2023-04-03T05:48:19;17.65;;;6.03;;
23988;SDS011;12202;52.136;5.592;2023-04-03T05:50:45;16.08;;;7.05;;
23988;SDS011;12202;52.136;5.592;2023-04-03T05:53:16;19.83;;;6.85;;
23988;SDS011;12202;52.136;5.592;2023-04-03T05:55:46;24.83;;;6.72;;
23988;SDS011;12202;52.136;5.592;2023-04-03T05:58:12;22.50;;;7.43;;
23988;SDS011;12202;52.136;5.592;2023-04-03T06:00:38;18.83;;;6.72;;
23988;SDS011;12202;52.136;5.592;2023-04-03T06:03:05;19.05;;;6.80;;
23988;SDS011;12202;52.136;5.592;2023-04-03T06:05:31;18.42;;;6.40;;
23988;SDS011;12202;52.136;5.592;2023-04-03T06:07:57;19.10;;;6.05;;
23988;SDS011;12202;52.136;5.592;2023-04-03T06:10:23;14.20;;;5.30;;
23988;SDS011;12202;52.136;5.592;2023-04-03T06:12:49;11.80;;;5.32;;
23988;SDS011;12202;52.136;5.592;2023-04-03T06:15:15;14.95;;;5.40;;
23988;SDS011;12202;52.136;5.592;2023-04-03T06:17:42;18.02;;;6.05;;
23988;SDS011;12202;52.136;5.592;2023-04-03T06:20:08;17.50;;;5.55;;
23988;SDS011;12202;52.136;5.592;2023-04-03T06:22:34;27.50;;;7.72;;
23988;SDS011;12202;52.136;5.592;2023-04-03T06:25:01;15.60;;;5.25;;
23988;SDS011;12202;52.136;5.592;2023-04-03T06:27:27;15.90;;;5.03;;
23988;SDS011;12202;52.136;5.592;2023-04-03T06:29:53;16.83;;;5.95;;
23988;SDS011;12202;52.136;5.592;2023-04-03T06:32:19;14.90;;;5.25;;
23988;SDS011;12202;52.136;5.592;2023-04-03T06:34:45;16.25;;;5.85;;
23988;SDS011;12202;52.136;5.592;2023-04-03T06:37:18;15.73;;;6.07;;
23988;SDS011;12202;52.136;5.592;2023-04-03T06:39:45;20.02;;;6.85;;
23988;SDS011;12202;52.136;5.592;2023-04-03T06:42:11;18.98;;;6.78;;
23988;SDS011;12202;52.136;5.592;2023-04-03T06:44:37;20.13;;;5.97;;
23988;SDS011;12202;52.136;5.592;2023-04-03T06:47:03;16.88;;;7.00;;
23988;SDS011;12202;52.136;5.592;2023-04-03T06:49:29;13.02;;;5.78;;
23988;SDS011;12202;52.136;5.592;2023-04-03T06:51:55;20.70;;;5.75;;
23988;SDS011;12202;52.136;5.592;2023-04-03T06:54:21;23.95;;;6.75;;
23988;SDS011;12202;52.136;5.592;2023-04-03T06:56:47;12.30;;;5.35;;
23988;SDS011;12202;52.136;5.592;2023-04-03T06:59:14;17.33;;;6.40;;
23988;SDS011;12202;52.136;5.592;2023-04-03T07:01:40;16.85;;;5.30;;
23988;SDS011;12202;52.136;5.592;2023-04-03T07:04:06;21.45;;;5.70;;
23988;SDS011;12202;52.136;5.592;2023-04-03T07:06:33;16.42;;;5.07;;
23988;SDS011;12202;52.136;5.592;2023-04-03T07:08:59;14.93;;;5.00;;
23988;SDS011;12202;52.136;5.592;2023-04-03T07:11:25;18.95;;;5.82;;
23988;SDS011;12202;52.136;5.592;2023-04-03T07:13:51;15.45;;;5.10;;
23988;SDS011;12202;52.136;5.592;2023-04-03T07:16:18;14.27;;;4.70;;
23988;SDS011;12202;52.136;5.592;2023-04-03T07:18:46;15.07;;;6.32;;
23988;SDS011;12202;52.136;5.592;2023-04-03T07:21:12;20.67;;;6.93;;
23988;SDS011;12202;52.136;5.592;2023-04-03T07:23:39;23.17;;;6.53;;
23988;SDS011;12202;52.136;5.592;2023-04-03T07:26:05;12.43;;;4.47;;
23988;SDS011;12202;52.136;5.592;2023-04-03T07:28:32;25.63;;;8.57;;
23988;SDS011;12202;52.136;5.592;2023-04-03T07:31:05;15.27;;;5.32;;
23988;SDS011;12202;52.136;5.592;2023-04-03T07:33:36;16.77;;;4.55;;
23988;SDS011;12202;52.136;5.592;2023-04-03T07:36:03;10.02;;;4.18;;
23988;SDS011;12202;52.136;5.592;2023-04-03T07:38:29;13.30;;;4.32;;
23988;SDS011;12202;52.136;5.592;2023-04-03T07:40:55;18.48;;;4.00;;
23988;SDS011;12202;52.136;5.592;2023-04-03T07:43:21;13.88;;;4.15;;
23988;SDS011;12202;52.136;5.592;2023-04-03T07:45:49;17.58;;;4.38;;
23988;SDS011;12202;52.136;5.592;2023-04-03T07:48:16;11.15;;;4.13;;
23988;SDS011;12202;52.136;5.592;2023-04-03T07:50:42;10.88;;;3.63;;
23988;SDS011;12202;52.136;5.592;2023-04-03T07:53:09;11.35;;;3.13;;
23988;SDS011;12202;52.136;5.592;2023-04-03T07:55:35;8.38;;;3.22;;
23988;SDS011;12202;52.136;5.592;2023-04-03T07:58:10;6.38;;;2.88;;
23988;SDS011;12202;52.136;5.592;2023-04-03T08:00:36;9.45;;;2.88;;
23988;SDS011;12202;52.136;5.592;2023-04-03T08:03:03;7.68;;;3.58;;
23988;SDS011;12202;52.136;5.592;2023-04-03T08:05:29;9.63;;;4.78;;
23988;SDS011;12202;52.136;5.592;2023-04-03T08:07:55;10.00;;;3.33;;
23988;SDS011;12202;52.136;5.592;2023-04-03T08:10:22;6.38;;;2.60;;
23988;SDS011;12202;52.136;5.592;2023-04-03T08:12:48;11.38;;;3.10;;
23988;SDS011;12202;52.136;5.592;2023-04-03T08:15:14;8.05;;;2.88;;
23988;SDS011;12202;52.136;5.592;2023-04-03T08:17:41;9.43;;;2.67;;
23988;SDS011;12202;52.136;5.592;2023-04-03T08:20:07;13.65;;;3.30;;
23988;SDS011;12202;52.136;5.592;2023-04-03T08:22:33;8.40;;;2.60;;
23988;SDS011;12202;52.136;5.592;2023-04-03T08:25:00;7.70;;;2.10;;
23988;SDS011;12202;52.136;5.592;2023-04-03T08:27:26;6.93;;;2.67;;
23988;SDS011;12202;52.136;5.592;2023-04-03T08:29:53;12.98;;;2.63;;
23988;SDS011;12202;52.136;5.592;2023-04-03T08:32:19;5.80;;;2.10;;
23988;SDS011;12202;52.136;5.592;2023-04-03T08:34:45;11.52;;;2.88;;
23988;SDS011;12202;52.136;5.592;2023-04-03T08:37:11;7.13;;;2.40;;
23988;SDS011;12202;52.136;5.592;2023-04-03T08:39:37;8.75;;;2.00;;
23988;SDS011;12202;52.136;5.592;2023-04-03T08:42:05;8.40;;;2.42;;
23988;SDS011;12202;52.136;5.592;2023-04-03T08:44:47;9.05;;;1.63;;
23988;SDS011;12202;52.136;5.592;2023-04-03T08:49:47;8.20;;;2.22;;
23988;SDS011;12202;52.136;5.592;2023-04-03T08:52:20;5.82;;;1.75;;
23988;SDS011;12202;52.136;5.592;2023-04-03T08:54:50;7.70;;;2.67;;
23988;SDS011;12202;52.136;5.592;2023-04-03T08:57:17;5.13;;;1.52;;
23988;SDS011;12202;52.136;5.592;2023-04-03T08:59:45;6.78;;;1.98;;
23988;SDS011;12202;52.136;5.592;2023-04-03T09:02:18;12.32;;;6.60;;
23988;SDS011;12202;52.136;5.592;2023-04-03T09:04:47;3.05;;;1.60;;
23988;SDS011;12202;52.136;5.592;2023-04-03T09:07:18;6.55;;;2.10;;
23988;SDS011;12202;52.136;5.592;2023-04-03T09:09:46;6.10;;;1.38;;
23988;SDS011;12202;52.136;5.592;2023-04-03T09:12:22;5.38;;;2.08;;
23988;SDS011;12202;52.136;5.592;2023-04-03T09:20:09;3.25;;;1.25;;
23988;SDS011;12202;52.136;5.592;2023-04-03T09:22:38;6.07;;;1.58;;
23988;SDS011;12202;52.136;5.592;2023-04-03T09:27:33;6.05;;;1.30;;
23988;SDS011;12202;52.136;5.592;2023-04-03T09:30:00;2.83;;;0.82;;
23988;SDS011;12202;52.136;5.592;2023-04-03T09:32:30;4.22;;;0.90;;
23988;SDS011;12202;52.136;5.592;2023-04-03T09:34:57;2.33;;;0.82;;
23988;SDS011;12202;52.136;5.592;2023-04-03T09:40:02;4.18;;;1.23;;
23988;SDS011;12202;52.136;5.592;2023-04-03T09:42:29;3.95;;;1.25;;
23988;SDS011;12202;52.136;5.592;2023-04-03T09:44:57;1.85;;;0.80;;
23988;SDS011;12202;52.136;5.592;2023-04-03T09:47:27;2.30;;;1.23;;
23988;SDS011;12202;52.136;5.592;2023-04-03T09:52:43;1.45;;;0.90;;
23988;SDS011;12202;52.136;5.592;2023-04-03T09:57:43;5.40;;;1.35;;
23988;SDS011;12202;52.136;5.592;2023-04-03T10:00:19;3.72;;;1.15;;
23988;SDS011;12202;52.136;5.592;2023-04-03T10:02:46;7.95;;;1.13;;
23988;SDS011;12202;52.136;5.592;2023-04-03T10:10:35;2.13;;;1.10;;
23988;SDS011;12202;52.136;5.592;2023-04-03T10:13:12;3.28;;;1.20;;
23988;SDS011;12202;52.136;5.592;2023-04-03T10:15:43;4.85;;;0.82;;
23988;SDS011;12202;52.136;5.592;2023-04-03T10:18:17;3.55;;;1.00;;
23988;SDS011;12202;52.136;5.592;2023-04-03T10:20:47;5.32;;;1.20;;
23988;SDS011;12202;52.136;5.592;2023-04-03T10:25:43;3.58;;;0.80;;
23988;SDS011;12202;52.136;5.592;2023-04-03T10:28:35;2.75;;;1.20;;
23988;SDS011;12202;52.136;5.592;2023-04-03T10:31:16;3.00;;;0.90;;
23988;SDS011;12202;52.136;5.592;2023-04-03T10:36:28;1.58;;;0.88;;
23988;SDS011;12202;52.136;5.592;2023-04-03T10:39:02;1.90;;;1.05;;
23988;SDS011;12202;52.136;5.592;2023-04-03T10:41:39;2.42;;;1.08;;
23988;SDS011;12202;52.136;5.592;2023-04-03T10:44:28;2.17;;;0.90;;
23988;SDS011;12202;52.136;5.592;2023-04-03T10:46:57;3.50;;;1.27;;
23988;SDS011;12202;52.136;5.592;2023-04-03T10:54:39;3.47;;;0.88;;
23988;SDS011;12202;52.136;5.592;2023-04-03T10:57:08;3.53;;;1.10;;
23988;SDS011;12202;52.136;5.592;2023-04-03T10:59:44;3.38;;;1.08;;
23988;SDS011;12202;52.136;5.592;2023-04-03T11:02:14;5.35;;;1.50;;
23988;SDS011;12202;52.136;5.592;2023-04-03T11:04:43;3.30;;;1.42;;
23988;SDS011;12202;52.136;5.592;2023-04-03T11:07:26;3.75;;;1.10;;
23988;SDS011;12202;52.136;5.592;2023-04-03T11:09:57;8.20;;;2.00;;
23988;SDS011;12202;52.136;5.592;2023-04-03T11:12:46;2.08;;;1.80;;
23988;SDS011;12202;52.136;5.592;2023-04-03T11:15:17;2.85;;;1.27;;
23988;SDS011;12202;52.136;5.592;2023-04-03T11:17:57;5.82;;;1.40;;
23988;SDS011;12202;52.136;5.592;2023-04-03T11:20:30;5.00;;;1.73;;
23988;SDS011;12202;52.136;5.592;2023-04-03T11:25:41;6.82;;;3.10;;
23988;SDS011;12202;52.136;5.592;2023-04-03T11:28:14;3.30;;;1.33;;
23988;SDS011;12202;52.136;5.592;2023-04-03T11:30:57;1.90;;;1.33;;
23988;SDS011;12202;52.136;5.592;2023-04-03T11:33:36;1.80;;;1.30;;
23988;SDS011;12202;52.136;5.592;2023-04-03T11:38:43;4.47;;;1.60;;
23988;SDS011;12202;52.136;5.592;2023-04-03T11:41:11;5.65;;;1.30;;
23988;SDS011;12202;52.136;5.592;2023-04-03T11:43:42;4.57;;;1.27;;
23988;SDS011;12202;52.136;5.592;2023-04-03T11:46:22;3.60;;;1.27;;
23988;SDS011;12202;52.136;5.592;2023-04-03T11:49:49;3.03;;;1.52;;
23988;SDS011;12202;52.136;5.592;2023-04-03T11:51:54;3.33;;;1.40;;
23988;SDS011;12202;52.136;5.592;2023-04-03T11:54:36;3.95;;;1.30;;
23988;SDS011;12202;52.136;5.592;2023-04-03T11:57:22;2.72;;;1.23;;
23988;SDS011;12202;52.136;5.592;2023-04-03T12:00:00;5.13;;;1.20;;
23988;SDS011;12202;52.136;5.592;2023-04-03T12:02:36;37.03;;;2.45;;
23988;SDS011;12202;52.136;5.592;2023-04-03T12:13:40;7.03;;;1.60;;
23988;SDS011;12202;52.136;5.592;2023-04-03T12:16:18;6.00;;;1.25;;
23988;SDS011;12202;52.136;5.592;2023-04-03T12:21:15;4.50;;;1.48;;
23988;SDS011;12202;52.136;5.592;2023-04-03T12:31:54;6.07;;;1.73;;
23988;SDS011;12202;52.136;5.592;2023-04-03T12:34:27;5.32;;;1.70;;
23988;SDS011;12202;52.136;5.592;2023-04-03T12:41:51;11.23;;;1.50;;
23988;SDS011;12202;52.136;5.592;2023-04-03T12:46:49;12.57;;;4.65;;
23988;SDS011;12202;52.136;5.592;2023-04-03T12:49:29;6.30;;;1.90;;
23988;SDS011;12202;52.136;5.592;2023-04-03T12:51:57;6.72;;;2.33;;
23988;SDS011;12202;52.136;5.592;2023-04-03T12:54:30;6.00;;;1.30;;
23988;SDS011;12202;52.136;5.592;2023-04-03T12:59:38;6.68;;;1.35;;
23988;SDS011;12202;52.136;5.592;2023-04-03T13:02:10;6.28;;;1.63;;
23988;SDS011;12202;52.136;5.592;2023-04-03T13:04:43;4.72;;;1.45;;
23988;SDS011;12202;52.136;5.592;2023-04-03T13:12:56;5.25;;;1.40;;
23988;SDS011;12202;52.136;5.592;2023-04-03T13:15:28;2.85;;;1.30;;
23988;SDS011;12202;52.136;5.592;2023-04-03T13:17:55;10.13;;;3.35;;
23988;SDS011;12202;52.136;5.592;2023-04-03T13:25:13;4.38;;;1.60;;
23988;SDS011;12202;52.136;5.592;2023-04-03T13:27:40;3.08;;;1.40;;
23988;SDS011;12202;52.136;5.592;2023-04-03T13:30:25;3.03;;;1.52;;
23988;SDS011;12202;52.136;5.592;2023-04-03T13:32:52;5.40;;;1.52;;
23988;SDS011;12202;52.136;5.592;2023-04-03T13:35:54;4.28;;;1.50;;
23988;SDS011;12202;52.136;5.592;2023-04-03T13:40:47;4.10;;;1.70;;
23988;SDS011;12202;52.136;5.592;2023-04-03T13:43:17;5.03;;;1.58;;
23988;SDS011;12202;52.136;5.592;2023-04-03T13:45:54;4.72;;;1.60;;
23988;SDS011;12202;52.136;5.592;2023-04-03T13:48:21;9.07;;;1.70;;
23988;SDS011;12202;52.136;5.592;2023-04-03T13:53:17;5.88;;;1.60;;
23988;SDS011;12202;52.136;5.592;2023-04-03T13:55:55;4.55;;;1.83;;
23988;SDS011;12202;52.136;5.592;2023-04-03T13:58:23;4.90;;;1.60;;
23988;SDS011;12202;52.136;5.592;2023-04-03T14:03:26;5.45;;;1.63;;
23988;SDS011;12202;52.136;5.592;2023-04-03T14:05:53;6.47;;;1.75;;
23988;SDS011;12202;52.136;5.592;2023-04-03T14:08:20;6.68;;;1.98;;
23988;SDS011;12202;52.136;5.592;2023-04-03T14:10:46;5.75;;;2.20;;
23988;SDS011;12202;52.136;5.592;2023-04-03T14:13:14;6.25;;;2.33;;
23988;SDS011;12202;52.136;5.592;2023-04-03T14:15:44;3.63;;;1.92;;
23988;SDS011;12202;52.136;5.592;2023-04-03T14:18:12;5.55;;;2.08;;
23988;SDS011;12202;52.136;5.592;2023-04-03T14:20:38;5.78;;;2.40;;
23988;SDS011;12202;52.136;5.592;2023-04-03T14:23:04;5.30;;;2.03;;
23988;SDS011;12202;52.136;5.592;2023-04-03T14:25:31;6.95;;;2.47;;
23988;SDS011;12202;52.136;5.592;2023-04-03T14:27:57;7.53;;;2.63;;
23988;SDS011;12202;52.136;5.592;2023-04-03T14:30:30;8.80;;;2.53;;
23988;SDS011;12202;52.136;5.592;2023-04-03T14:32:56;8.60;;;3.22;;
23988;SDS011;12202;52.136;5.592;2023-04-03T14:35:22;8.73;;;3.38;;
23988;SDS011;12202;52.136;5.592;2023-04-03T14:37:48;8.98;;;3.20;;
23988;SDS011;12202;52.136;5.592;2023-04-03T14:40:16;4.38;;;2.60;;
23988;SDS011;12202;52.136;5.592;2023-04-03T14:42:42;13.02;;;3.78;;
23988;SDS011;12202;52.136;5.592;2023-04-03T14:45:09;11.48;;;3.88;;
23988;SDS011;12202;52.136;5.592;2023-04-03T14:47:40;8.32;;;3.35;;
23988;SDS011;12202;52.136;5.592;2023-04-03T14:50:11;9.18;;;3.90;;
23988;SDS011;12202;52.136;5.592;2023-04-03T14:52:38;8.13;;;3.03;;
23988;SDS011;12202;52.136;5.592;2023-04-03T14:55:07;6.95;;;2.53;;
23988;SDS011;12202;52.136;5.592;2023-04-03T14:57:33;8.15;;;2.22;;
23988;SDS011;12202;52.136;5.592;2023-04-03T14:59:59;4.97;;;2.20;;
23988;SDS011;12202;52.136;5.592;2023-04-03T15:04:55;5.55;;;2.22;;
23988;SDS011;12202;52.136;5.592;2023-04-03T15:07:22;6.07;;;2.03;;
23988;SDS011;12202;52.136;5.592;2023-04-03T15:09:49;4.18;;;2.15;;
23988;SDS011;12202;52.136;5.592;2023-04-03T15:12:15;5.50;;;2.80;;
23988;SDS011;12202;52.136;5.592;2023-04-03T15:14:41;8.50;;;2.35;;
23988;SDS011;12202;52.136;5.592;2023-04-03T15:17:09;6.28;;;2.30;;
23988;SDS011;12202;52.136;5.592;2023-04-03T15:19:37;6.43;;;2.83;;
23988;SDS011;12202;52.136;5.592;2023-04-03T15:22:03;7.72;;;2.65;;
23988;SDS011;12202;52.136;5.592;2023-04-03T15:24:29;8.32;;;2.63;;
23988;SDS011;12202;52.136;5.592;2023-04-03T15:26:55;6.70;;;2.20;;
23988;SDS011;12202;52.136;5.592;2023-04-03T15:29:21;7.72;;;2.42;;
23988;SDS011;12202;52.136;5.592;2023-04-03T15:31:47;17.25;;;6.90;;
23988;SDS011;12202;52.136;5.592;2023-04-03T15:34:14;14.88;;;6.25;;
23988;SDS011;12202;52.136;5.592;2023-04-03T15:36:41;8.43;;;3.90;;
23988;SDS011;12202;52.136;5.592;2023-04-03T15:39:07;5.78;;;3.58;;
23988;SDS011;12202;52.136;5.592;2023-04-03T15:41:33;6.15;;;2.45;;
23988;SDS011;12202;52.136;5.592;2023-04-03T15:43:59;10.55;;;2.53;;
23988;SDS011;12202;52.136;5.592;2023-04-03T15:46:25;9.02;;;3.05;;
23988;SDS011;12202;52.136;5.592;2023-04-03T15:48:51;8.90;;;3.20;;
23988;SDS011;12202;52.136;5.592;2023-04-03T15:51:17;7.03;;;2.55;;
23988;SDS011;12202;52.136;5.592;2023-04-03T15:53:43;5.95;;;2.80;;
23988;SDS011;12202;52.136;5.592;2023-04-03T15:56:09;9.32;;;2.35;;
23988;SDS011;12202;52.136;5.592;2023-04-03T15:58:36;11.82;;;2.50;;
23988;SDS011;12202;52.136;5.592;2023-04-03T16:01:03;9.63;;;3.78;;
23988;SDS011;12202;52.136;5.592;2023-04-03T16:03:29;10.77;;;3.28;;
23988;SDS011;12202;52.136;5.592;2023-04-03T16:05:55;15.98;;;2.67;;
23988;SDS011;12202;52.136;5.592;2023-04-03T16:08:21;5.85;;;3.13;;
23988;SDS011;12202;52.136;5.592;2023-04-03T16:10:48;8.43;;;2.78;;
23988;SDS011;12202;52.136;5.592;2023-04-03T16:13:14;6.70;;;3.38;;
23988;SDS011;12202;52.136;5.592;2023-04-03T16:15:40;9.40;;;3.88;;
23988;SDS011;12202;52.136;5.592;2023-04-03T16:18:07;7.50;;;2.90;;
23988;SDS011;12202;52.136;5.592;2023-04-03T16:20:34;11.85;;;3.38;;
23988;SDS011;12202;52.136;5.592;2023-04-03T16:23:00;6.45;;;3.08;;
23988;SDS011;12202;52.136;5.592;2023-04-03T16:25:29;6.88;;;2.63;;